Time;durP1;ratioP1;P1;durP2;ratioP2;P2;SDS_P1;SDS_P2;PMS_P1;PMS_P2;Temp;Humidity;BMP_temperature;BMP_pressure;BME280_temperature;BME280_humidity;BME280_pressure;Samples;Min_cycle;Max_cycle;Signal;HPM_P1;HPM_P2
2021/10/11 00:02:53;;;;;;;12.37;9.00;;;;;;;9.43;46.14;98843.06;8326284;28;20229;-93
2021/10/11 00:06:56;;;;;;;11.40;9.57;;;;;;;9.49;45.91;98835.16;8321762;28;20224;-93
2021/10/11 00:10:59;;;;;;;11.10;9.13;;;;;;;9.50;46.47;98830.81;8323777;28;20232;-93
2021/10/11 00:15:03;;;;;;;10.97;9.33;;;;;;;9.37;46.51;98827.72;8324325;28;20540;-93
2021/10/11 00:19:07;;;;;;;14.63;9.80;;;;;;;9.36;46.57;98832.03;8346693;28;20476;-94
2021/10/11 00:23:11;;;;;;;11.77;9.43;;;;;;;9.34;46.66;98825.22;8359534;28;20204;-95
2021/10/11 00:27:14;;;;;;;10.53;9.17;;;;;;;9.37;46.26;98831.16;8360330;28;20316;-96
2021/10/11 00:31:17;;;;;;;11.63;9.33;;;;;;;9.35;45.97;98819.16;8361947;28;20205;-95
2021/10/11 00:35:21;;;;;;;11.33;9.20;;;;;;;9.22;45.66;98825.53;8360740;28;20291;-95
2021/10/11 00:39:24;;;;;;;12.90;9.53;;;;;;;9.15;45.62;98815.31;8361648;28;20204;-95
2021/10/11 00:43:27;;;;;;;12.53;9.77;;;;;;;9.17;45.70;98813.53;8362163;28;20211;-95
2021/10/11 00:47:30;;;;;;;13.60;9.33;;;;;;;9.17;45.37;98815.28;8361010;28;20228;-95
2021/10/11 00:51:35;;;;;;;11.83;8.83;;;;;;;9.22;45.30;98813.44;8357130;28;20207;-95
2021/10/11 00:55:38;;;;;;;14.17;8.90;;;;;;;9.09;45.39;98796.56;8355240;28;20207;-95
2021/10/11 00:59:41;;;;;;;11.70;9.10;;;;;;;9.01;45.83;98794.16;8354788;28;20200;-95
2021/10/11 01:03:44;;;;;;;12.97;8.87;;;;;;;9.09;46.08;98797.41;8327508;28;20231;-92
2021/10/11 01:07:49;;;;;;;13.90;9.30;;;;;;;9.00;45.81;98795.91;8321067;28;20236;-92
2021/10/11 01:11:53;;;;;;;11.80;9.17;;;;;;;8.94;44.92;98788.28;8321058;28;20268;-93
2021/10/11 01:15:56;;;;;;;12.97;8.63;;;;;;;8.97;45.15;98801.13;8320685;28;20511;-93
2021/10/11 01:20:01;;;;;;;11.37;8.43;;;;;;;8.98;45.13;98789.06;8322326;28;20228;-92
2021/10/11 01:24:04;;;;;;;9.60;8.33;;;;;;;8.92;45.44;98796.97;8321213;28;20206;-91
2021/10/11 01:28:06;;;;;;;12.07;8.93;;;;;;;8.87;45.48;98783.31;8321647;28;20236;-93
2021/10/11 01:32:10;;;;;;;12.00;9.37;;;;;;;8.76;45.49;98781.00;8327488;28;20205;-95
2021/10/11 01:36:14;;;;;;;10.60;8.87;;;;;;;8.78;45.39;98789.56;8322668;28;20201;-95
2021/10/11 01:40:19;;;;;;;12.90;9.33;;;;;;;8.71;46.02;98793.16;8320075;28;20211;-95
2021/10/11 01:44:21;;;;;;;10.90;9.03;;;;;;;8.68;45.95;98793.22;8321103;28;20205;-95
2021/10/11 01:48:27;;;;;;;11.00;9.37;;;;;;;8.69;45.71;98792.34;8323282;28;20205;-94
2021/10/11 01:52:31;;;;;;;15.00;8.87;;;;;;;8.65;45.85;98790.75;8323187;28;20205;-90
2021/10/11 01:56:34;;;;;;;11.30;9.23;;;;;;;8.56;45.58;98776.28;8319099;28;20294;-91
2021/10/11 02:00:37;;;;;;;11.27;9.20;;;;;;;8.63;45.86;98784.75;8319186;28;20205;-91
2021/10/11 02:04:43;;;;;;;11.40;8.97;;;;;;;8.56;46.11;98789.19;8318946;28;20201;-91
2021/10/11 02:08:47;;;;;;;13.27;9.37;;;;;;;8.49;45.89;98775.59;8318912;28;20205;-92
2021/10/11 02:12:50;;;;;;;11.90;9.17;;;;;;;8.40;46.17;98770.63;8318482;28;20248;-92
2021/10/11 02:16:53;;;;;;;10.50;9.40;;;;;;;8.37;46.30;98763.75;8324915;28;20212;-90
2021/10/11 02:20:55;;;;;;;13.27;9.90;;;;;;;8.42;46.17;98758.56;8340934;28;20197;-91
2021/10/11 02:25:00;;;;;;;12.97;10.03;;;;;;;8.33;46.01;98759.56;8323015;28;20229;-90
2021/10/11 02:29:03;;;;;;;12.23;9.50;;;;;;;8.37;45.65;98744.88;8320246;28;20208;-93
2021/10/11 02:33:06;;;;;;;10.30;9.20;;;;;;;8.23;45.84;98750.34;8319411;28;20201;-92
2021/10/11 02:37:09;;;;;;;14.23;9.20;;;;;;;8.30;45.86;98744.16;8319688;28;20201;-91
2021/10/11 02:41:16;;;;;;;11.83;9.13;;;;;;;8.32;46.14;98744.97;8318864;28;20208;-92
2021/10/11 02:45:19;;;;;;;15.13;10.03;;;;;;;8.19;45.79;98746.13;8318882;28;20328;-94
2021/10/11 02:49:25;;;;;;;11.67;9.07;;;;;;;8.28;45.43;98745.94;8319266;28;20205;-93
2021/10/11 02:53:28;;;;;;;10.90;8.90;;;;;;;8.16;45.29;98752.19;8319098;28;20205;-95
2021/10/11 02:57:32;;;;;;;11.50;9.00;;;;;;;8.18;45.33;98739.25;8318878;28;20212;-91
2021/10/11 03:01:35;;;;;;;11.00;8.90;;;;;;;8.18;45.18;98749.59;8317950;28;20205;-91
2021/10/11 03:05:38;;;;;;;11.97;9.37;;;;;;;8.11;45.51;98741.16;8318003;28;20225;-93
2021/10/11 03:09:41;;;;;;;10.80;8.97;;;;;;;8.11;45.98;98745.44;8317937;28;20212;-92
2021/10/11 03:13:45;;;;;;;11.63;8.77;;;;;;;8.01;45.90;98752.53;8317430;28;20246;-91
2021/10/11 03:17:48;;;;;;;11.60;9.20;;;;;;;8.04;45.78;98747.31;8317733;28;20201;-91
2021/10/11 03:21:53;;;;;;;12.93;9.47;;;;;;;7.98;46.15;98744.88;8317379;28;20488;-90
2021/10/11 03:25:56;;;;;;;12.00;9.77;;;;;;;8.00;46.17;98743.13;8317337;28;20229;-89
2021/10/11 03:30:00;;;;;;;11.53;8.83;;;;;;;8.02;46.23;98728.44;8316953;28;20453;-88
2021/10/11 03:34:04;;;;;;;11.50;8.93;;;;;;;8.05;46.28;98725.78;8316648;28;20201;-88
2021/10/11 03:38:07;;;;;;;10.90;9.63;;;;;;;7.86;46.16;98730.47;8316851;28;20216;-89
2021/10/11 03:42:10;;;;;;;14.07;9.37;;;;;;;8.00;45.74;98723.31;8322661;28;20359;-94
2021/10/11 03:46:14;;;;;;;11.83;9.23;;;;;;;7.99;45.56;98716.44;8323485;28;20224;-94
2021/10/11 03:50:20;;;;;;;11.93;9.63;;;;;;;8.05;45.31;98701.72;8323561;28;20220;-95
2021/10/11 03:54:24;;;;;;;11.37;9.37;;;;;;;7.87;45.91;98698.66;8323492;28;20212;-90
2021/10/11 03:58:26;;;;;;;14.53;9.17;;;;;;;7.88;45.89;98684.91;8322931;28;20201;-91
2021/10/11 04:02:31;;;;;;;12.30;9.97;;;;;;;7.63;46.72;98685.44;8322648;28;20205;-90
2021/10/11 04:06:34;;;;;;;13.07;10.27;;;;;;;7.14;48.94;98676.09;8323220;28;20229;-90
2021/10/11 04:10:42;;;;;;;11.87;9.93;;;;;;;7.58;48.05;98679.53;8323109;28;20229;-89
2021/10/11 04:14:46;;;;;;;13.90;10.07;;;;;;;6.69;51.21;98670.06;8322786;28;20252;-89
2021/10/11 04:18:50;;;;;;;13.40;11.33;;;;;;;6.87;51.19;98680.03;8326061;28;20204;-89
2021/10/11 04:22:54;;;;;;;15.87;10.13;;;;;;;7.34;49.47;98667.13;8322024;28;20504;-90
2021/10/11 04:26:57;;;;;;;13.53;10.87;;;;;;;7.46;49.77;98671.19;8321829;28;20224;-90
2021/10/11 04:31:00;;;;;;;14.83;9.90;;;;;;;7.74;48.51;98668.88;8322059;28;20231;-89
2021/10/11 04:35:05;;;;;;;13.80;9.77;;;;;;;7.80;48.20;98679.88;8321648;28;20211;-88
2021/10/11 04:39:08;;;;;;;11.67;9.63;;;;;;;7.78;48.31;98683.41;8321282;28;20204;-89
2021/10/11 04:43:11;;;;;;;13.97;9.63;;;;;;;7.76;48.02;98686.00;8321837;28;20213;-90
2021/10/11 04:47:14;;;;;;;11.50;9.90;;;;;;;7.71;47.65;98705.03;8321593;28;20233;-89
2021/10/11 04:51:18;;;;;;;11.87;10.57;;;;;;;7.84;47.22;98711.63;8320640;28;20205;-88
2021/10/11 04:55:21;;;;;;;14.60;11.23;;;;;;;7.74;47.38;98717.88;8321254;28;20201;-91
2021/10/11 04:59:25;;;;;;;15.57;11.53;;;;;;;7.68;47.38;98720.56;8321404;28;20267;-93
2021/10/11 05:03:28;;;;;;;14.10;10.57;;;;;;;7.62;46.92;98729.28;8321203;28;20213;-93
2021/10/11 05:07:32;;;;;;;15.87;11.37;;;;;;;7.61;46.96;98720.69;8327699;28;20224;-92
2021/10/11 05:11:35;;;;;;;12.17;10.77;;;;;;;7.52;47.53;98727.75;8354187;28;20232;-92
2021/10/11 05:15:38;;;;;;;15.53;11.77;;;;;;;7.53;47.14;98719.16;8353469;28;20208;-92
2021/10/11 05:19:41;;;;;;;13.17;10.23;;;;;;;7.57;47.66;98710.47;8326465;28;20197;-89
2021/10/11 05:23:45;;;;;;;13.03;10.30;;;;;;;7.57;47.61;98726.78;8320233;28;20200;-93
2021/10/11 05:27:48;;;;;;;14.87;10.40;;;;;;;7.60;47.49;98724.16;8322781;28;20232;-93
2021/10/11 05:31:53;;;;;;;12.60;10.27;;;;;;;7.62;47.77;98718.97;8339181;28;20200;-93
2021/10/11 05:35:56;;;;;;;17.00;10.57;;;;;;;7.66;48.12;98724.91;8338906;28;20197;-92
2021/10/11 05:40:00;;;;;;;14.37;10.33;;;;;;;7.74;47.57;98730.75;8338033;28;20197;-94
2021/10/11 05:44:04;;;;;;;22.03;11.00;;;;;;;7.65;47.20;98767.88;8356063;28;20204;-94
2021/10/11 05:48:07;;;;;;;18.37;10.53;;;;;;;7.63;46.79;98760.19;8342892;28;20217;-93
2021/10/11 05:52:10;;;;;;;22.83;11.77;;;;;;;7.73;46.93;98770.28;8336803;28;20308;-94
2021/10/11 05:56:15;;;;;;;21.50;11.23;;;;;;;7.68;46.91;98746.38;8344875;28;20200;-94
2021/10/11 06:00:18;;;;;;;24.47;10.87;;;;;;;7.73;47.39;98762.56;8350864;28;20201;-94
2021/10/11 06:04:21;;;;;;;20.50;11.53;;;;;;;7.92;47.27;98753.59;8324521;28;20376;-92
2021/10/11 06:08:25;;;;;;;24.97;12.60;;;;;;;7.79;47.49;98759.88;8320436;28;20232;-94
2021/10/11 06:12:30;;;;;;;21.67;13.40;;;;;;;8.13;47.33;98766.88;8319536;28;20241;-91
2021/10/11 06:16:33;;;;;;;21.27;13.23;;;;;;;8.15;47.49;98770.31;8319445;28;20209;-93
2021/10/11 06:20:36;;;;;;;22.70;12.17;;;;;;;8.17;47.57;98771.13;8319306;28;20211;-94
2021/10/11 06:24:39;;;;;;;18.43;11.87;;;;;;;8.21;47.48;98773.59;8319986;28;20205;-93
2021/10/11 06:28:43;;;;;;;17.63;11.77;;;;;;;8.09;48.07;98770.41;8319180;28;20228;-93
2021/10/11 06:32:46;;;;;;;18.67;12.67;;;;;;;8.39;47.53;98766.31;8319948;28;20193;-93
2021/10/11 06:36:49;;;;;;;14.27;11.20;;;;;;;8.22;48.13;98753.78;8319109;28;20203;-94
2021/10/11 06:40:52;;;;;;;17.40;10.93;;;;;;;8.25;48.34;98753.72;8318161;28;20205;-90
2021/10/11 06:44:57;;;;;;;17.90;11.23;;;;;;;8.50;48.28;98751.47;8302065;28;20560;-93
2021/10/11 06:49:00;;;;;;;15.73;10.97;;;;;;;8.64;47.79;98760.63;8286553;28;20403;-93
2021/10/11 06:53:03;;;;;;;15.53;10.50;;;;;;;8.63;47.96;98746.03;8290211;28;20213;-94
2021/10/11 06:57:07;;;;;;;15.17;11.30;;;;;;;8.94;48.14;98746.13;8289938;28;20211;-94
2021/10/11 07:01:12;;;;;;;15.47;10.63;;;;;;;8.94;47.37;98748.69;8292189;28;20197;-95
2021/10/11 07:05:16;;;;;;;15.13;10.80;;;;;;;9.10;47.92;98759.47;8318815;28;20276;-93
2021/10/11 07:09:19;;;;;;;18.07;11.20;;;;;;;9.16;48.14;98761.94;8317736;28;20229;-91
2021/10/11 07:13:23;;;;;;;17.63;11.40;;;;;;;9.15;47.93;98757.63;8317450;28;20244;-92
2021/10/11 07:17:27;;;;;;;16.50;11.43;;;;;;;9.05;48.59;98769.09;8317526;28;20205;-91
2021/10/11 07:21:30;;;;;;;16.43;11.30;;;;;;;8.95;49.13;98771.06;8317665;28;20368;-93
2021/10/11 07:25:33;;;;;;;17.30;10.60;;;;;;;9.30;48.16;98771.91;8317818;28;20659;-95
2021/10/11 07:29:36;;;;;;;15.53;11.43;;;;;;;9.46;47.81;98767.16;8317536;28;20232;-95
2021/10/11 07:33:41;;;;;;;15.17;11.17;;;;;;;9.61;47.60;98771.06;8316966;28;20201;-95
2021/10/11 07:37:43;;;;;;;17.53;11.50;;;;;;;9.61;47.82;98776.22;8317582;28;20205;-94
2021/10/11 07:41:46;;;;;;;12.87;10.97;;;;;;;10.20;46.70;98780.59;8317345;28;20205;-94
2021/10/11 07:45:50;;;;;;;14.43;10.80;;;;;;;10.51;46.21;98790.91;8317701;28;20399;-95
2021/10/11 07:49:54;;;;;;;19.13;10.37;;;;;;;10.70;45.58;98807.56;8317193;28;20239;-94
2021/10/11 07:53:57;;;;;;;13.87;10.67;;;;;;;10.81;45.46;98802.03;8317197;28;20215;-95
2021/10/11 07:58:00;;;;;;;16.27;10.80;;;;;;;11.19;45.53;98807.72;8316825;28;20208;-95
2021/10/11 08:02:04;;;;;;;12.37;10.57;;;;;;;11.34;45.00;98808.94;8317017;28;20201;-94
2021/10/11 08:06:08;;;;;;;16.93;10.83;;;;;;;11.81;43.84;98815.97;8316880;28;20316;-95
2021/10/11 08:10:12;;;;;;;11.00;9.73;;;;;;;12.22;43.37;98805.84;8316860;28;20248;-95
2021/10/11 08:14:15;;;;;;;18.20;11.23;;;;;;;12.12;43.00;98800.16;8317008;28;20244;-95
2021/10/11 08:18:18;;;;;;;13.97;10.90;;;;;;;12.31;43.10;98800.31;8316907;28;20204;-94
2021/10/11 08:22:22;;;;;;;15.30;10.60;;;;;;;12.83;42.12;98779.22;8316765;28;20201;-95
2021/10/11 08:26:26;;;;;;;13.97;10.50;;;;;;;13.03;42.19;98773.22;8318897;28;20205;-95
2021/10/11 08:30:29;;;;;;;13.90;10.33;;;;;;;13.45;41.58;98785.34;8322448;28;20264;-95
2021/10/11 08:34:32;;;;;;;16.20;10.07;;;;;;;13.87;40.92;98781.78;8322602;28;20357;-95
2021/10/11 08:38:36;;;;;;;12.90;9.93;;;;;;;14.21;40.38;98773.25;8321929;28;20212;-95
2021/10/11 08:42:40;;;;;;;11.33;9.37;;;;;;;14.46;39.97;98770.34;8322139;28;20216;-95
2021/10/11 08:46:44;;;;;;;12.90;9.97;;;;;;;14.90;39.03;98770.94;8322092;28;20201;-94
2021/10/11 08:50:47;;;;;;;13.27;10.30;;;;;;;15.08;38.58;98774.38;8321808;28;20228;-94
2021/10/11 08:54:52;;;;;;;12.33;9.97;;;;;;;15.30;38.46;98761.09;8321957;28;20461;-95
2021/10/11 08:58:55;;;;;;;12.20;10.57;;;;;;;15.62;37.62;98757.66;8321759;28;20201;-96
2021/10/11 09:03:00;;;;;;;13.70;9.50;;;;;;;16.10;37.58;98764.78;8321680;28;20204;-95
2021/10/11 09:07:05;;;;;;;15.00;10.27;;;;;;;16.73;36.71;98751.66;8321599;28;20268;-95
2021/10/11 09:11:12;;;;;;;18.70;9.67;;;;;;;16.68;36.60;98747.63;8321140;28;20305;-94
2021/10/11 09:15:14;;;;;;;12.37;9.70;;;;;;;16.31;37.67;98752.31;8321222;28;20244;-94
2021/10/11 09:19:19;;;;;;;15.20;9.77;;;;;;;16.59;37.54;98764.69;8288646;28;20197;-94
2021/10/11 09:23:23;;;;;;;13.17;9.80;;;;;;;16.57;37.30;98761.31;8288485;28;20400;-95
2021/10/11 09:27:28;;;;;;;13.60;10.23;;;;;;;16.80;37.29;98760.84;8288779;28;20201;-95
2021/10/11 09:31:39;;;;;;;12.03;9.37;;;;;;;17.04;37.68;98749.06;8298002;28;20207;-94
2021/10/11 09:35:45;;;;;;;15.57;9.10;;;;;;;17.19;36.97;98751.66;8351861;28;20203;-95
2021/10/11 09:39:59;;;;;;;11.20;8.87;;;;;;;17.58;36.39;98742.34;8353007;28;20232;-94
2021/10/11 09:44:16;;;;;;;14.90;9.90;;;;;;;17.97;35.78;98740.00;8353078;28;20231;-93
2021/10/11 09:48:20;;;;;;;14.23;9.73;;;;;;;18.08;36.44;98742.78;8352725;28;20585;-91
2021/10/11 09:52:23;;;;;;;14.07;10.90;;;;;;;18.38;35.98;98731.31;8352856;28;20205;-94
2021/10/11 09:56:28;;;;;;;17.57;11.53;;;;;;;18.31;35.96;98737.88;8352333;28;20200;-93
2021/10/11 10:00:33;;;;;;;13.37;10.53;;;;;;;18.62;36.38;98742.00;8352311;28;20200;-92
2021/10/11 10:04:39;;;;;;;14.40;10.07;;;;;;;19.05;35.58;98725.22;8319637;28;20209;-93
2021/10/11 10:08:43;;;;;;;17.83;12.53;;;;;;;19.01;36.33;98723.75;8319392;28;20236;-92
2021/10/11 10:12:47;;;;;;;15.10;12.33;;;;;;;19.19;36.18;98730.41;8318898;28;20237;-93
2021/10/11 10:16:57;;;;;;;14.33;12.77;;;;;;;19.30;35.32;98719.97;8318757;28;20204;-93
2021/10/11 10:21:01;;;;;;;20.03;12.70;;;;;;;19.36;35.21;98742.38;8319273;28;20247;-93
2021/10/11 10:25:05;;;;;;;16.40;11.13;;;;;;;19.68;34.71;98727.00;8319011;28;20376;-92
2021/10/11 10:29:12;;;;;;;15.67;11.20;;;;;;;19.75;34.24;98731.88;8318708;28;20232;-93
2021/10/11 10:33:17;;;;;;;19.33;11.23;;;;;;;19.70;34.86;98716.41;8318752;28;20500;-92
2021/10/11 10:37:20;;;;;;;15.67;11.00;;;;;;;19.79;34.71;98707.06;8318625;28;20208;-89
2021/10/11 10:41:26;;;;;;;16.63;10.87;;;;;;;19.85;34.73;98696.13;8318578;28;20519;-92
2021/10/11 10:45:29;;;;;;;14.07;11.47;;;;;;;19.77;35.39;98688.78;8318347;28;20205;-93
2021/10/11 10:49:35;;;;;;;18.30;12.00;;;;;;;19.80;35.07;98696.47;8317626;28;20228;-91
2021/10/11 10:53:39;;;;;;;21.17;12.87;;;;;;;19.52;35.53;98700.16;8318281;28;20391;-93
2021/10/11 10:57:44;;;;;;;17.97;13.33;;;;;;;19.60;34.79;98689.09;8318129;28;20220;-89
2021/10/11 11:01:47;;;;;;;18.50;12.60;;;;;;;20.01;34.70;98677.44;8317691;28;20292;-91
2021/10/11 11:05:54;;;;;;;22.87;14.63;;;;;;;19.62;35.12;98677.53;8318042;28;20215;-93
2021/10/11 11:10:16;;;;;;;22.77;14.13;;;;;;;19.78;35.36;98681.72;8317670;28;20229;-90
2021/10/11 11:14:21;;;;;;;16.50;14.23;;;;;;;19.67;34.69;98672.78;8317598;28;20237;-90
2021/10/11 11:18:25;;;;;;;19.57;15.20;;;;;;;19.54;35.40;98670.19;8317671;28;20201;-92
2021/10/11 11:22:30;;;;;;;21.43;15.27;;;;;;;19.36;35.27;98666.19;8317700;28;20211;-93
2021/10/11 11:26:33;;;;;;;17.27;14.10;;;;;;;19.30;35.79;98664.84;8317711;28;20227;-92
2021/10/11 11:30:38;;;;;;;20.90;15.27;;;;;;;19.30;35.65;98641.22;8317174;28;20411;-87
2021/10/11 11:34:42;;;;;;;24.93;14.97;;;;;;;19.32;35.44;98657.72;8317260;28;20387;-91
2021/10/11 11:38:47;;;;;;;20.07;13.90;;;;;;;19.37;35.56;98656.56;8317483;28;20205;-93
2021/10/11 11:42:50;;;;;;;16.57;13.80;;;;;;;19.33;35.59;98662.00;8317287;28;20496;-94
2021/10/11 11:47:03;;;;;;;18.63;15.63;;;;;;;19.17;35.79;98650.03;8317209;28;20205;-89
2021/10/11 11:51:09;;;;;;;19.03;16.30;;;;;;;19.10;36.29;98647.84;8317082;28;20235;-93
2021/10/11 11:55:16;;;;;;;19.87;14.33;;;;;;;19.04;35.66;98640.41;8316909;28;20216;-92
2021/10/11 11:59:19;;;;;;;19.03;15.50;;;;;;;18.95;35.60;98654.16;8316950;28;20212;-91
2021/10/11 12:03:23;;;;;;;16.90;15.10;;;;;;;18.74;35.97;98638.88;8335433;28;20208;-92
2021/10/11 12:07:27;;;;;;;19.67;14.93;;;;;;;18.85;36.43;98648.69;8344764;28;20261;-94
2021/10/11 12:11:35;;;;;;;19.87;16.07;;;;;;;18.46;36.50;98642.47;8327976;28;20239;-92
2021/10/11 12:15:38;;;;;;;18.77;14.37;;;;;;;18.76;36.92;98628.28;8336761;28;20221;-94
2021/10/11 12:19:41;;;;;;;17.13;15.13;;;;;;;18.49;36.55;98634.44;8333674;28;20197;-94
2021/10/11 12:23:44;;;;;;;19.67;15.83;;;;;;;18.51;36.95;98619.44;8312689;28;20204;-93
2021/10/11 12:27:48;;;;;;;17.67;15.33;;;;;;;18.40;37.76;98616.66;8297006;28;20393;-93
2021/10/11 12:32:03;;;;;;;23.37;17.73;;;;;;;18.03;37.71;98600.75;8295485;28;20415;-93
2021/10/11 12:36:10;;;;;;;22.00;18.07;;;;;;;17.83;38.71;98607.22;8300915;28;20198;-92
2021/10/11 12:40:15;;;;;;;25.97;18.90;;;;;;;17.90;39.32;98610.34;8310935;28;20197;-93
2021/10/11 12:44:25;;;;;;;23.43;19.50;;;;;;;17.75;38.93;98599.84;8297982;28;20201;-94
2021/10/11 12:48:28;;;;;;;22.13;17.87;;;;;;;17.91;39.65;98598.91;8310888;28;20197;-96
2021/10/11 12:52:34;;;;;;;23.60;20.27;;;;;;;17.47;39.43;98611.22;8308550;28;20514;-91
2021/10/11 12:56:39;;;;;;;22.60;19.27;;;;;;;17.72;39.56;98597.41;8302359;28;20193;-90
2021/10/11 13:00:43;;;;;;;27.67;23.57;;;;;;;17.47;40.26;98611.22;8301654;28;20472;-90
2021/10/11 13:04:47;;;;;;;24.83;20.07;;;;;;;17.71;40.06;98611.47;8310220;28;20547;-89
2021/10/11 13:08:51;;;;;;;29.27;22.40;;;;;;;17.15;39.76;98607.97;8316700;28;20221;-90
2021/10/11 13:12:55;;;;;;;27.43;21.67;;;;;;;17.33;39.92;98612.09;8316000;28;20229;-91
2021/10/11 13:16:59;;;;;;;29.93;25.20;;;;;;;16.83;43.25;98623.84;8291580;28;20194;-89
2021/10/11 13:21:02;;;;;;;33.20;27.97;;;;;;;16.64;44.55;98621.44;8293535;28;20194;-91
2021/10/11 13:25:06;;;;;;;35.63;30.10;;;;;;;16.35;45.50;98634.41;8307545;28;20269;-90
2021/10/11 13:29:25;;;;;;;37.40;30.60;;;;;;;15.98;46.36;98615.59;8292093;28;20225;-90
2021/10/11 14:27:36;;;;;;;28.03;23.93;;;;;;;15.55;48.45;98612.72;8318944;28;20200;-90
2021/10/11 14:31:12;;;;;;;29.43;21.73;;;;;;;15.50;48.82;98626.94;8319134;28;20230;-90
2021/10/11 15:58:18;;;;;;;34.93;28.00;;;;;;;14.85;59.43;98625.13;8322727;28;20207;-90
2021/10/11 16:02:31;;;;;;;32.17;27.60;;;;;;;14.85;59.86;98622.53;8323056;28;20232;-91
2021/10/11 16:06:35;;;;;;;31.40;26.40;;;;;;;14.84;59.81;98626.03;8322997;28;20271;-90
2021/10/11 16:10:39;;;;;;;29.40;25.13;;;;;;;14.84;59.61;98629.50;8322351;28;20332;-90
2021/10/11 16:14:42;;;;;;;32.37;26.17;;;;;;;14.81;59.60;98634.88;8322281;28;20260;-90
2021/10/11 16:19:06;;;;;;;29.63;25.73;;;;;;;14.78;59.66;98618.53;8322318;28;20196;-91
2021/10/11 16:23:11;;;;;;;32.20;25.60;;;;;;;14.79;59.44;98628.03;8322047;28;20383;-90
2021/10/11 16:27:15;;;;;;;29.10;25.40;;;;;;;14.82;59.69;98625.28;8321358;28;20197;-92
2021/10/11 16:31:19;;;;;;;30.23;26.70;;;;;;;14.69;59.71;98627.66;8327248;28;20229;-87
2021/10/11 16:35:22;;;;;;;39.70;31.07;;;;;;;14.69;59.64;98629.44;8323861;28;20332;-87
2021/10/11 16:39:25;;;;;;;33.60;27.90;;;;;;;14.69;59.72;98630.28;8320975;28;20512;-88
2021/10/11 16:43:29;;;;;;;28.50;24.57;;;;;;;14.74;59.61;98638.72;8321319;28;20204;-87
2021/10/11 16:47:32;;;;;;;34.27;27.70;;;;;;;14.73;59.85;98638.78;8322711;28;20203;-89
2021/10/11 16:51:35;;;;;;;33.53;28.10;;;;;;;14.65;60.18;98633.97;8322200;28;20412;-86
2021/10/11 16:55:58;;;;;;;32.67;28.67;;;;;;;14.60;60.32;98641.16;8327103;28;20205;-87
2021/10/11 17:00:03;;;;;;;35.60;27.53;;;;;;;14.60;60.28;98648.97;8320505;28;20515;-87
2021/10/11 17:04:06;;;;;;;32.23;28.10;;;;;;;14.64;60.22;98647.91;8320239;28;20197;-87
2021/10/11 17:08:09;;;;;;;35.47;29.37;;;;;;;14.53;60.47;98647.59;8320633;28;20357;-90
2021/10/11 17:12:12;;;;;;;34.33;29.00;;;;;;;14.47;60.53;98646.97;8320165;28;20511;-88
2021/10/11 17:16:17;;;;;;;32.00;27.70;;;;;;;14.52;60.48;98645.88;8320747;28;20201;-90
2021/10/11 17:20:31;;;;;;;34.37;28.83;;;;;;;14.48;60.53;98639.97;8320126;28;20205;-91
2021/10/11 17:24:34;;;;;;;33.40;26.83;;;;;;;14.52;60.33;98654.53;8319865;28;20303;-90
2021/10/11 17:28:37;;;;;;;31.10;26.83;;;;;;;14.54;60.24;98657.06;8319595;28;20750;-90
2021/10/11 17:32:45;;;;;;;34.83;28.98;;;;;;;14.83;59.19;98659.09;8318759;28;20444;-90
2021/10/11 17:36:47;;;;;;;30.63;27.30;;;;;;;14.46;60.42;98663.50;8319814;28;20208;-90
2021/10/11 17:40:50;;;;;;;30.03;26.30;;;;;;;14.47;60.42;98666.97;8320176;28;20307;-90
2021/10/11 17:44:53;;;;;;;33.30;28.33;;;;;;;14.41;60.36;98662.91;8319929;28;20212;-90
2021/10/11 17:49:00;;;;;;;37.20;29.60;;;;;;;14.35;60.27;98654.53;8320327;28;20205;-89
2021/10/11 17:53:03;;;;;;;31.97;26.90;;;;;;;14.29;60.14;98660.88;8321154;28;20295;-90
2021/10/11 17:57:07;;;;;;;33.13;29.52;;;;;;;14.82;58.54;98660.00;8320139;28;20604;-90
2021/10/11 18:01:09;;;;;;;33.75;29.58;;;;;;;14.75;58.73;98668.22;8320396;28;20432;-89
2021/10/11 18:05:14;;;;;;;32.90;27.63;;;;;;;14.38;59.21;98657.81;8327057;28;20393;-90
2021/10/11 18:09:17;;;;;;;33.58;28.98;;;;;;;14.74;58.34;98667.38;8324849;28;20412;-90
2021/10/11 18:13:20;;;;;;;32.80;29.27;;;;;;;14.93;57.64;98661.25;8322137;28;20472;-90
2021/10/11 18:17:23;;;;;;;31.73;26.43;;;;;;;14.38;59.38;98657.00;8322769;28;20205;-88
2021/10/11 18:21:27;;;;;;;28.57;25.43;;;;;;;14.31;59.03;98671.22;8333787;28;20203;-91
2021/10/11 18:25:30;;;;;;;30.17;25.50;;;;;;;14.34;59.13;98665.88;8356790;28;20375;-88
2021/10/11 18:29:33;;;;;;;29.80;25.43;;;;;;;14.27;59.25;98658.34;8353432;28;20200;-85
2021/10/11 18:33:37;;;;;;;30.30;27.00;;;;;;;14.27;58.87;98653.13;8320059;28;20440;-88
2021/10/11 18:37:41;;;;;;;29.23;24.93;;;;;;;14.18;59.33;98655.34;8320669;28;20234;-88
2021/10/11 18:41:44;;;;;;;29.93;25.20;;;;;;;14.13;59.16;98655.56;8321583;28;20475;-88
2021/10/11 18:45:47;;;;;;;28.67;25.50;;;;;;;14.05;59.18;98660.28;8320593;28;20535;-88
2021/10/11 18:49:53;;;;;;;28.43;24.37;;;;;;;14.02;59.02;98671.69;8322218;28;20201;-88
2021/10/11 18:53:59;;;;;;;32.35;27.15;;;;;;;14.47;57.63;98669.56;8317782;28;20450;-89
2021/10/11 18:58:02;;;;;;;28.83;25.67;;;;;;;14.00;59.45;98662.28;8319954;28;20208;-87
2021/10/11 19:02:05;;;;;;;29.13;24.60;;;;;;;14.04;59.22;98664.66;8319819;28;20201;-89
2021/10/11 19:06:10;;;;;;;29.67;25.20;;;;;;;13.95;59.61;98664.25;8319953;28;20248;-88
2021/10/11 19:10:14;;;;;;;31.27;25.77;;;;;;;13.94;59.10;98665.19;8318596;28;20197;-90
2021/10/11 19:14:18;;;;;;;32.40;26.07;;;;;;;13.85;59.23;98663.84;8318499;28;20249;-91
2021/10/11 19:18:21;;;;;;;32.20;25.87;;;;;;;13.85;58.86;98658.63;8320410;28;20327;-90
2021/10/11 19:22:26;;;;;;;33.50;26.93;;;;;;;13.76;58.93;98657.28;8320079;28;20205;-90
2021/10/11 19:26:30;;;;;;;29.97;25.90;;;;;;;13.72;59.30;98660.94;8319186;28;20207;-89
2021/10/11 19:30:33;;;;;;;29.53;26.33;;;;;;;13.73;58.89;98654.84;8318427;28;20204;-89
2021/10/11 19:34:36;;;;;;;31.27;25.57;;;;;;;13.68;58.95;98657.63;8319847;28;20205;-92
2021/10/11 19:38:39;;;;;;;30.87;25.97;;;;;;;13.67;58.89;98655.97;8319305;28;20220;-92
2021/10/11 19:42:44;;;;;;;32.47;27.87;;;;;;;13.58;59.03;98666.78;8318870;28;20205;-89
2021/10/11 19:46:47;;;;;;;34.07;26.87;;;;;;;13.53;59.60;98663.53;8318282;28;20201;-89
2021/10/11 19:50:50;;;;;;;29.13;25.80;;;;;;;13.55;58.92;98664.31;8318453;28;20204;-89
2021/10/11 19:54:53;;;;;;;30.57;25.47;;;;;;;13.52;59.00;98658.41;8319094;28;20205;-88
2021/10/11 19:58:57;;;;;;;30.53;26.53;;;;;;;13.56;58.97;98642.59;8318738;28;20205;-88
2021/10/11 20:03:00;;;;;;;31.27;27.30;;;;;;;13.51;58.89;98649.75;8319113;28;20201;-89
2021/10/11 20:07:03;;;;;;;32.40;27.90;;;;;;;13.49;59.27;98639.41;8334145;28;20365;-90
2021/10/11 20:11:09;;;;;;;32.07;26.70;;;;;;;13.51;59.03;98641.13;8318548;28;20236;-90
2021/10/11 20:15:14;;;;;;;34.30;28.70;;;;;;;13.36;59.15;98645.25;8317594;28;20244;-90
2021/10/11 20:19:17;;;;;;;33.27;27.87;;;;;;;13.41;58.91;98644.13;8318187;28;20216;-90
2021/10/11 20:23:19;;;;;;;29.77;26.57;;;;;;;13.38;58.96;98644.25;8321749;28;20204;-88
2021/10/11 20:27:22;;;;;;;29.07;25.50;;;;;;;13.38;59.22;98646.03;8323488;28;20209;-87
2021/10/11 20:35:57;;;;;;;30.57;26.00;;;;;;;13.26;58.84;98640.44;8331336;23;20300;-64
2021/10/11 20:40:00;;;;;;;29.20;24.60;;;;;;;13.28;58.84;98640.38;8319954;28;20209;-64
2021/10/11 20:44:03;;;;;;;28.07;24.10;;;;;;;13.25;59.10;98654.38;8320273;28;20208;-65
2021/10/11 20:48:06;;;;;;;28.30;24.87;;;;;;;13.18;59.10;98658.13;8320082;28;20292;-63
2021/10/11 20:52:11;;;;;;;28.30;23.27;;;;;;;13.19;58.98;98653.78;8319536;28;20229;-64
2021/10/11 20:56:14;;;;;;;29.17;23.03;;;;;;;13.19;59.08;98651.16;8319452;28;20215;-64
2021/10/11 21:00:17;;;;;;;26.17;22.50;;;;;;;13.16;59.50;98640.91;8319490;28;20205;-64
2021/10/11 21:04:20;;;;;;;24.10;21.47;;;;;;;13.25;59.10;98633.56;8319155;28;20213;-63
2021/10/11 21:08:25;;;;;;;24.13;20.07;;;;;;;13.24;59.26;98631.84;8318872;28;20241;-64
2021/10/11 21:12:28;;;;;;;26.25;22.45;;;;;;;13.60;58.13;98614.69;8317414;28;20436;-63